Seward, PA

2:47 AM EST on February 09, 2016 (GMT -0500)
Seward | | Change Station
CLOSE
Current Station
Personal Weather Station
Location: Seward, PA
Elevation: 1138 ft
Nearby Weather Stations
Active Advisory: Winter Weather Advisory

Elev 1138 ft 40.41 °N, 79.02 °W | Updated 6 minutes ago

Overcast
Overcast
33.3 °F
Feels Like 33 °F
N
0.0
Wind Variable Wind from North
Gusts 0.0 mph

Today
High -- | Low -- °F
--% Chance of Precip.
Yesterday
High -- | Low -- °F
Precip. -- in
Pressure 29.55 in
Visibility 10.0 miles
Clouds Scattered Clouds 2500 ft
Overcast 4000 ft
Windchill 33 °F
Dew Point 32 °F
Humidity 94%
Rainfall 0.00 in
Snow Depth Not available.
7:17 AM 5:43 PM
New Moon, 1% visible
METAR KJST 090654Z AUTO 27004KT 10SM SCT025 OVC040 M01/M04 A2949 RMK AO2 SLP005 T10111039
Pressure 29.55 in
Visibility 10.0 miles
Clouds Scattered Clouds 2500 ft
Overcast 4000 ft
Windchill 33 °F
Dew Point 32 °F
Humidity 94%
Rainfall 0.00 in
Snow Depth Not available.
7:17 AM 5:43 PM
New Moon, 1% visible
METAR KJST 090654Z AUTO 27004KT 10SM SCT025 OVC040 M01/M04 A2949 RMK AO2 SLP005 T10111039

10-Day Weather Forecast

Almanac

Astronomy

Feb. 09, 2016 Rise Set
Actual Time
Civil Twilight
Nautical Twilight
Astronomical Twilight
Moon
Length of Visible Light
Length of Day
Tomorrow will be .
, % of the Moon is Illuminated

Today's Extremes

State Highs State Lows

Community

WunderPhotos

Upload Photos

1,891,571 photos uploaded!

WunderBlog® & News

Nearby

Air Quality

  Air Quality AQ Index Pollutant
Not available.

Snow Depth

Station Depth Elevation

Earthquake Activity

City Distance Mag. Time & Date
Minimum magnitude displayed is 2.5.

Coastal Water Temperatures

Place Temperature

Stations

Nearby Weather Stations

Station Location Temp. Windchill Dew Point Humidity Wind Precip. Elev Updated Type
                   

Watches & Warnings

Winter Weather Advisory
Issued: 7:12 PM EST Feb. 8, 2016 – National Weather Service

... Winter Weather Advisory remains in effect until 7 PM EST
Wednesday...

* snow accumulation... 4 to 8 inches.

* Snow beginning... this evening.

* Period of most intense snow... late tonight through Tuesday.

* Snow ending... snow showers will continue into Wednesday before
gradually tapering down thereafter.

* Impacts... hazardous travel conditions are expected due to snow.

Precautionary/preparedness actions...

A Winter Weather Advisory for snow means that periods of snow
will cause primarily travel difficulties. Be prepared for snow
covered roads and limited visibilities... and use caution while
driving.